Kortcamp, Illinois
Current Conditions -  °F | °C
As of 9:55 AM on Friday 31 Oct 2014 (Local Time) from K3LF Reporting Station
Clear Clear  
Wind Chill: 27°   Ceiling: Unl
Heat Index: 38°   Visibility: 10mi
Dew Point: 25°   Wind: 24mph
Humidity: 60%   Direction: 340°NNW
Pressure: 30.23"   Gusts: 33mph
Location:  39.1415°N, 89.5029°W
Report Text: K3LF 311455Z AUTO 34021G29KT 10SM CLR 03/M04 A3023 RMK AO2 T00331037
Loading
Personal Weather Stations






























Interactive Weather Map
Tropical Storm Tracking
New forecast layout! Learn more

10-Day Weather Forecast

Advertisements
Track Severe Weather on mobile